sensor_id;sensor_type;location;lat;lon;timestamp;temperature;humidity
10270;DHT22;5180;50.832;5.390;2022-10-31T00:02:16;14.60;99.90
10270;DHT22;5180;50.832;5.390;2022-10-31T00:04:41;14.60;99.90
10270;DHT22;5180;50.832;5.390;2022-10-31T00:07:07;14.60;99.90
10270;DHT22;5180;50.832;5.390;2022-10-31T00:09:32;14.70;99.90
10270;DHT22;5180;50.832;5.390;2022-10-31T00:11:58;14.70;99.90
10270;DHT22;5180;50.832;5.390;2022-10-31T00:14:23;14.80;99.90
10270;DHT22;5180;50.832;5.390;2022-10-31T00:16:49;14.80;99.90
10270;DHT22;5180;50.832;5.390;2022-10-31T00:19:15;14.80;99.90
10270;DHT22;5180;50.832;5.390;2022-10-31T00:21:40;14.80;99.90
10270;DHT22;5180;50.832;5.390;2022-10-31T00:24:06;14.90;99.90
10270;DHT22;5180;50.832;5.390;2022-10-31T00:26:32;14.90;99.90
10270;DHT22;5180;50.832;5.390;2022-10-31T00:28:58;14.90;99.90
10270;DHT22;5180;50.832;5.390;2022-10-31T00:31:24;14.90;99.90
10270;DHT22;5180;50.832;5.390;2022-10-31T00:33:49;15.00;99.90
10270;DHT22;5180;50.832;5.390;2022-10-31T00:36:17;14.90;99.90
10270;DHT22;5180;50.832;5.390;2022-10-31T00:38:45;14.90;99.90
10270;DHT22;5180;50.832;5.390;2022-10-31T00:41:11;14.90;99.90
10270;DHT22;5180;50.832;5.390;2022-10-31T00:43:37;14.90;99.90
10270;DHT22;5180;50.832;5.390;2022-10-31T00:46:03;14.90;99.90
10270;DHT22;5180;50.832;5.390;2022-10-31T00:48:29;14.80;99.90
10270;DHT22;5180;50.832;5.390;2022-10-31T00:50:55;14.80;99.90
10270;DHT22;5180;50.832;5.390;2022-10-31T00:53:21;14.70;99.90
10270;DHT22;5180;50.832;5.390;2022-10-31T00:55:47;14.70;99.90
10270;DHT22;5180;50.832;5.390;2022-10-31T00:58:12;14.60;99.90
10270;DHT22;5180;50.832;5.390;2022-10-31T01:00:38;14.60;99.90
10270;DHT22;5180;50.832;5.390;2022-10-31T01:03:04;14.60;99.90
10270;DHT22;5180;50.832;5.390;2022-10-31T01:05:29;14.50;99.90
10270;DHT22;5180;50.832;5.390;2022-10-31T01:07:55;14.50;99.90
10270;DHT22;5180;50.832;5.390;2022-10-31T01:10:21;14.50;99.90
10270;DHT22;5180;50.832;5.390;2022-10-31T01:12:48;14.50;99.90
10270;DHT22;5180;50.832;5.390;2022-10-31T01:15:19;14.40;99.90
10270;DHT22;5180;50.832;5.390;2022-10-31T01:17:46;14.40;99.90
10270;DHT22;5180;50.832;5.390;2022-10-31T01:20:13;14.40;99.90
10270;DHT22;5180;50.832;5.390;2022-10-31T01:22:39;14.30;99.90
10270;DHT22;5180;50.832;5.390;2022-10-31T01:25:05;14.30;99.90
10270;DHT22;5180;50.832;5.390;2022-10-31T01:27:32;14.20;99.90
10270;DHT22;5180;50.832;5.390;2022-10-31T01:29:57;14.20;99.90
10270;DHT22;5180;50.832;5.390;2022-10-31T01:32:23;14.20;99.90
10270;DHT22;5180;50.832;5.390;2022-10-31T01:34:49;14.10;99.90
10270;DHT22;5180;50.832;5.390;2022-10-31T01:37:15;14.10;99.90
10270;DHT22;5180;50.832;5.390;2022-10-31T01:39:41;14.10;99.90
10270;DHT22;5180;50.832;5.390;2022-10-31T01:42:06;14.10;99.90
10270;DHT22;5180;50.832;5.390;2022-10-31T01:47:17;14.00;99.90
10270;DHT22;5180;50.832;5.390;2022-10-31T01:49:54;14.00;99.90
10270;DHT22;5180;50.832;5.390;2022-10-31T01:52:42;14.00;99.90
10270;DHT22;5180;50.832;5.390;2022-10-31T01:55:16;14.00;99.90
10270;DHT22;5180;50.832;5.390;2022-10-31T01:57:46;14.00;99.90
10270;DHT22;5180;50.832;5.390;2022-10-31T02:00:14;14.00;99.90
10270;DHT22;5180;50.832;5.390;2022-10-31T02:02:41;14.00;99.90
10270;DHT22;5180;50.832;5.390;2022-10-31T02:05:11;14.00;99.90
10270;DHT22;5180;50.832;5.390;2022-10-31T02:08:06;14.00;99.90
10270;DHT22;5180;50.832;5.390;2022-10-31T02:10:33;14.10;99.90
10270;DHT22;5180;50.832;5.390;2022-10-31T02:13:03;14.10;99.90
10270;DHT22;5180;50.832;5.390;2022-10-31T02:15:31;14.10;99.90
10270;DHT22;5180;50.832;5.390;2022-10-31T02:17:57;14.10;99.90
10270;DHT22;5180;50.832;5.390;2022-10-31T02:20:25;14.10;99.90
10270;DHT22;5180;50.832;5.390;2022-10-31T02:39:13;13.80;99.90
10270;DHT22;5180;50.832;5.390;2022-10-31T02:44:37;13.80;99.90
10270;DHT22;5180;50.832;5.390;2022-10-31T02:47:26;13.80;99.90
10270;DHT22;5180;50.832;5.390;2022-10-31T02:50:22;13.80;99.90
10270;DHT22;5180;50.832;5.390;2022-10-31T02:52:51;13.80;99.90
10270;DHT22;5180;50.832;5.390;2022-10-31T02:57:56;13.80;99.90
10270;DHT22;5180;50.832;5.390;2022-10-31T03:00:23;13.80;99.90
10270;DHT22;5180;50.832;5.390;2022-10-31T03:05:55;13.80;99.90
10270;DHT22;5180;50.832;5.390;2022-10-31T03:08:30;13.80;99.90
10270;DHT22;5180;50.832;5.390;2022-10-31T03:11:03;13.90;99.90
10270;DHT22;5180;50.832;5.390;2022-10-31T03:13:48;13.90;99.90
10270;DHT22;5180;50.832;5.390;2022-10-31T03:16:29;13.90;99.90
10270;DHT22;5180;50.832;5.390;2022-10-31T03:19:08;13.90;99.90
10270;DHT22;5180;50.832;5.390;2022-10-31T03:21:43;13.90;99.90
10270;DHT22;5180;50.832;5.390;2022-10-31T03:24:11;13.90;99.90
10270;DHT22;5180;50.832;5.390;2022-10-31T03:26:41;13.90;99.90
10270;DHT22;5180;50.832;5.390;2022-10-31T03:29:11;13.90;99.90
10270;DHT22;5180;50.832;5.390;2022-10-31T03:31:54;13.90;99.90
10270;DHT22;5180;50.832;5.390;2022-10-31T03:34:21;13.90;99.90
10270;DHT22;5180;50.832;5.390;2022-10-31T03:36:51;13.90;99.90
10270;DHT22;5180;50.832;5.390;2022-10-31T03:39:19;13.90;99.90
10270;DHT22;5180;50.832;5.390;2022-10-31T03:42:09;13.80;99.90
10270;DHT22;5180;50.832;5.390;2022-10-31T03:44:34;13.80;99.90
10270;DHT22;5180;50.832;5.390;2022-10-31T03:47:02;13.70;99.90
10270;DHT22;5180;50.832;5.390;2022-10-31T03:49:29;13.60;99.90
10270;DHT22;5180;50.832;5.390;2022-10-31T04:00:05;13.60;99.90
10270;DHT22;5180;50.832;5.390;2022-10-31T04:02:32;13.60;99.90
10270;DHT22;5180;50.832;5.390;2022-10-31T04:04:59;13.50;99.90
10270;DHT22;5180;50.832;5.390;2022-10-31T04:07:33;13.50;99.90
10270;DHT22;5180;50.832;5.390;2022-10-31T04:10:04;13.50;99.90
10270;DHT22;5180;50.832;5.390;2022-10-31T04:12:31;13.40;99.90
10270;DHT22;5180;50.832;5.390;2022-10-31T04:14:57;13.40;99.90
10270;DHT22;5180;50.832;5.390;2022-10-31T04:17:28;13.40;99.90
10270;DHT22;5180;50.832;5.390;2022-10-31T04:19:55;13.30;99.90
10270;DHT22;5180;50.832;5.390;2022-10-31T04:22:21;13.30;99.90
10270;DHT22;5180;50.832;5.390;2022-10-31T04:24:46;13.20;99.90
10270;DHT22;5180;50.832;5.390;2022-10-31T04:27:12;13.20;99.90
10270;DHT22;5180;50.832;5.390;2022-10-31T04:29:37;13.10;99.90
10270;DHT22;5180;50.832;5.390;2022-10-31T04:32:03;13.10;99.90
10270;DHT22;5180;50.832;5.390;2022-10-31T04:34:29;13.10;99.90
10270;DHT22;5180;50.832;5.390;2022-10-31T04:36:54;13.00;99.90
10270;DHT22;5180;50.832;5.390;2022-10-31T04:39:20;13.00;99.90
10270;DHT22;5180;50.832;5.390;2022-10-31T04:41:45;13.00;99.90
10270;DHT22;5180;50.832;5.390;2022-10-31T04:44:11;12.90;99.90
10270;DHT22;5180;50.832;5.390;2022-10-31T04:46:36;12.90;99.90
10270;DHT22;5180;50.832;5.390;2022-10-31T04:49:02;12.90;99.90
10270;DHT22;5180;50.832;5.390;2022-10-31T04:51:28;12.80;99.90
10270;DHT22;5180;50.832;5.390;2022-10-31T04:53:53;12.80;99.90
10270;DHT22;5180;50.832;5.390;2022-10-31T04:56:19;12.80;99.90
10270;DHT22;5180;50.832;5.390;2022-10-31T04:58:45;12.70;99.90
10270;DHT22;5180;50.832;5.390;2022-10-31T05:01:10;12.70;99.90
10270;DHT22;5180;50.832;5.390;2022-10-31T05:03:36;12.70;99.90
10270;DHT22;5180;50.832;5.390;2022-10-31T05:06:05;12.70;99.90
10270;DHT22;5180;50.832;5.390;2022-10-31T05:08:30;12.70;99.90
10270;DHT22;5180;50.832;5.390;2022-10-31T05:11:00;12.70;99.90
10270;DHT22;5180;50.832;5.390;2022-10-31T05:13:26;12.70;99.90
10270;DHT22;5180;50.832;5.390;2022-10-31T05:15:51;12.70;99.90
10270;DHT22;5180;50.832;5.390;2022-10-31T05:18:17;12.70;99.90
10270;DHT22;5180;50.832;5.390;2022-10-31T05:20:43;12.70;99.90
10270;DHT22;5180;50.832;5.390;2022-10-31T05:23:08;12.70;99.90
10270;DHT22;5180;50.832;5.390;2022-10-31T05:25:34;12.70;99.90
10270;DHT22;5180;50.832;5.390;2022-10-31T05:28:00;12.60;99.90
10270;DHT22;5180;50.832;5.390;2022-10-31T05:30:28;12.60;99.90
10270;DHT22;5180;50.832;5.390;2022-10-31T05:32:54;12.60;99.90
10270;DHT22;5180;50.832;5.390;2022-10-31T05:35:28;12.60;99.90
10270;DHT22;5180;50.832;5.390;2022-10-31T05:37:54;12.60;99.90
10270;DHT22;5180;50.832;5.390;2022-10-31T05:40:21;12.70;99.90
10270;DHT22;5180;50.832;5.390;2022-10-31T05:42:49;12.70;99.90
10270;DHT22;5180;50.832;5.390;2022-10-31T05:45:16;12.80;99.90
10270;DHT22;5180;50.832;5.390;2022-10-31T05:47:49;12.80;99.90
10270;DHT22;5180;50.832;5.390;2022-10-31T05:50:14;12.80;99.90
10270;DHT22;5180;50.832;5.390;2022-10-31T05:52:40;12.90;99.90
10270;DHT22;5180;50.832;5.390;2022-10-31T05:55:06;12.90;99.90
10270;DHT22;5180;50.832;5.390;2022-10-31T05:57:32;12.90;99.90
10270;DHT22;5180;50.832;5.390;2022-10-31T05:59:58;13.00;99.90
10270;DHT22;5180;50.832;5.390;2022-10-31T06:02:24;13.00;99.90
10270;DHT22;5180;50.832;5.390;2022-10-31T06:04:50;13.00;99.90
10270;DHT22;5180;50.832;5.390;2022-10-31T06:07:16;13.00;99.90
10270;DHT22;5180;50.832;5.390;2022-10-31T06:09:41;13.00;99.90
10270;DHT22;5180;50.832;5.390;2022-10-31T06:12:07;12.90;99.90
10270;DHT22;5180;50.832;5.390;2022-10-31T06:14:33;12.90;99.90
10270;DHT22;5180;50.832;5.390;2022-10-31T06:16:59;12.80;99.90
10270;DHT22;5180;50.832;5.390;2022-10-31T06:19:24;12.70;99.90
10270;DHT22;5180;50.832;5.390;2022-10-31T06:21:50;12.70;99.90
10270;DHT22;5180;50.832;5.390;2022-10-31T06:24:15;12.60;99.90
10270;DHT22;5180;50.832;5.390;2022-10-31T06:26:41;12.60;99.90
10270;DHT22;5180;50.832;5.390;2022-10-31T06:29:06;12.60;99.90
10270;DHT22;5180;50.832;5.390;2022-10-31T06:31:32;12.60;99.90
10270;DHT22;5180;50.832;5.390;2022-10-31T06:33:58;12.60;99.90
10270;DHT22;5180;50.832;5.390;2022-10-31T06:36:23;12.60;99.90
10270;DHT22;5180;50.832;5.390;2022-10-31T06:38:49;12.60;99.90
10270;DHT22;5180;50.832;5.390;2022-10-31T06:41:15;12.60;99.90
10270;DHT22;5180;50.832;5.390;2022-10-31T06:43:40;12.60;99.90
10270;DHT22;5180;50.832;5.390;2022-10-31T06:46:06;12.70;99.90
10270;DHT22;5180;50.832;5.390;2022-10-31T06:48:32;12.70;99.90
10270;DHT22;5180;50.832;5.390;2022-10-31T06:51:01;12.80;99.90
10270;DHT22;5180;50.832;5.390;2022-10-31T06:53:28;12.80;99.90
10270;DHT22;5180;50.832;5.390;2022-10-31T06:55:58;12.80;99.90
10270;DHT22;5180;50.832;5.390;2022-10-31T06:58:24;12.80;99.90
10270;DHT22;5180;50.832;5.390;2022-10-31T07:00:49;12.90;99.90
10270;DHT22;5180;50.832;5.390;2022-10-31T07:03:16;12.90;99.90
10270;DHT22;5180;50.832;5.390;2022-10-31T07:05:43;13.00;99.90
10270;DHT22;5180;50.832;5.390;2022-10-31T07:08:13;13.10;99.90
10270;DHT22;5180;50.832;5.390;2022-10-31T07:10:40;13.10;99.90
10270;DHT22;5180;50.832;5.390;2022-10-31T07:13:11;13.20;99.90
10270;DHT22;5180;50.832;5.390;2022-10-31T07:15:38;13.30;99.90
10270;DHT22;5180;50.832;5.390;2022-10-31T07:18:06;13.30;99.90
10270;DHT22;5180;50.832;5.390;2022-10-31T07:20:33;13.40;99.90
10270;DHT22;5180;50.832;5.390;2022-10-31T07:22:58;13.50;99.90
10270;DHT22;5180;50.832;5.390;2022-10-31T07:25:25;13.60;99.90
10270;DHT22;5180;50.832;5.390;2022-10-31T07:27:51;13.70;99.90
10270;DHT22;5180;50.832;5.390;2022-10-31T07:30:17;13.80;99.90
10270;DHT22;5180;50.832;5.390;2022-10-31T07:32:48;13.80;99.90
10270;DHT22;5180;50.832;5.390;2022-10-31T07:35:16;13.80;99.90
10270;DHT22;5180;50.832;5.390;2022-10-31T07:37:43;13.80;99.90
10270;DHT22;5180;50.832;5.390;2022-10-31T07:40:09;13.60;99.90
10270;DHT22;5180;50.832;5.390;2022-10-31T07:42:39;13.40;99.90
10270;DHT22;5180;50.832;5.390;2022-10-31T07:45:07;13.40;99.90
10270;DHT22;5180;50.832;5.390;2022-10-31T07:50:11;13.50;99.90
10270;DHT22;5180;50.832;5.390;2022-10-31T07:52:36;13.60;99.90
10270;DHT22;5180;50.832;5.390;2022-10-31T07:55:03;13.60;99.90
10270;DHT22;5180;50.832;5.390;2022-10-31T07:57:29;13.70;99.90
10270;DHT22;5180;50.832;5.390;2022-10-31T07:59:54;13.80;99.90
10270;DHT22;5180;50.832;5.390;2022-10-31T08:02:20;13.80;99.90
10270;DHT22;5180;50.832;5.390;2022-10-31T08:04:46;13.90;99.90
10270;DHT22;5180;50.832;5.390;2022-10-31T08:07:12;13.90;99.90
10270;DHT22;5180;50.832;5.390;2022-10-31T08:09:37;14.10;99.90
10270;DHT22;5180;50.832;5.390;2022-10-31T08:12:03;14.20;99.90
10270;DHT22;5180;50.832;5.390;2022-10-31T08:14:29;14.40;99.90
10270;DHT22;5180;50.832;5.390;2022-10-31T08:16:55;14.50;99.90
10270;DHT22;5180;50.832;5.390;2022-10-31T08:19:20;14.70;99.90
10270;DHT22;5180;50.832;5.390;2022-10-31T08:21:46;14.90;99.90
10270;DHT22;5180;50.832;5.390;2022-10-31T08:24:12;15.10;99.90
10270;DHT22;5180;50.832;5.390;2022-10-31T08:26:37;15.30;99.90
10270;DHT22;5180;50.832;5.390;2022-10-31T08:29:03;15.50;99.90
10270;DHT22;5180;50.832;5.390;2022-10-31T08:31:29;15.60;99.90
10270;DHT22;5180;50.832;5.390;2022-10-31T08:33:55;15.80;99.90
10270;DHT22;5180;50.832;5.390;2022-10-31T08:36:21;16.10;99.90
10270;DHT22;5180;50.832;5.390;2022-10-31T08:38:47;16.40;99.90
10270;DHT22;5180;50.832;5.390;2022-10-31T08:41:13;16.70;99.90
10270;DHT22;5180;50.832;5.390;2022-10-31T08:43:39;16.90;99.90
10270;DHT22;5180;50.832;5.390;2022-10-31T08:46:05;17.10;99.90
10270;DHT22;5180;50.832;5.390;2022-10-31T08:48:31;17.20;99.90
10270;DHT22;5180;50.832;5.390;2022-10-31T08:50:58;17.30;99.90
10270;DHT22;5180;50.832;5.390;2022-10-31T08:53:24;17.50;99.90
10270;DHT22;5180;50.832;5.390;2022-10-31T08:55:50;17.60;99.90
10270;DHT22;5180;50.832;5.390;2022-10-31T08:58:18;17.80;99.90
10270;DHT22;5180;50.832;5.390;2022-10-31T09:00:45;17.90;99.90
10270;DHT22;5180;50.832;5.390;2022-10-31T09:03:13;17.80;99.90
10270;DHT22;5180;50.832;5.390;2022-10-31T09:05:40;17.80;99.90
10270;DHT22;5180;50.832;5.390;2022-10-31T09:08:06;17.70;99.90
10270;DHT22;5180;50.832;5.390;2022-10-31T09:10:34;17.60;99.90
10270;DHT22;5180;50.832;5.390;2022-10-31T09:13:06;17.50;99.90
10270;DHT22;5180;50.832;5.390;2022-10-31T09:15:34;17.40;99.90
10270;DHT22;5180;50.832;5.390;2022-10-31T09:18:00;17.40;99.90
10270;DHT22;5180;50.832;5.390;2022-10-31T09:20:27;17.20;99.90
10270;DHT22;5180;50.832;5.390;2022-10-31T09:23:01;17.10;99.90
10270;DHT22;5180;50.832;5.390;2022-10-31T09:25:27;17.10;99.90
10270;DHT22;5180;50.832;5.390;2022-10-31T09:28:01;17.10;99.90
10270;DHT22;5180;50.832;5.390;2022-10-31T09:30:28;17.20;99.90
10270;DHT22;5180;50.832;5.390;2022-10-31T09:32:58;17.30;99.90
10270;DHT22;5180;50.832;5.390;2022-10-31T09:35:24;17.40;99.90
10270;DHT22;5180;50.832;5.390;2022-10-31T09:38:00;17.40;99.90
10270;DHT22;5180;50.832;5.390;2022-10-31T09:40:42;17.50;99.90
10270;DHT22;5180;50.832;5.390;2022-10-31T09:55:19;17.40;99.90
10270;DHT22;5180;50.832;5.390;2022-10-31T09:57:46;18.20;99.90
10270;DHT22;5180;50.832;5.390;2022-10-31T10:00:20;18.40;99.90
10270;DHT22;5180;50.832;5.390;2022-10-31T10:03:10;18.40;99.90
10270;DHT22;5180;50.832;5.390;2022-10-31T10:08:23;18.70;99.90
10270;DHT22;5180;50.832;5.390;2022-10-31T10:10:59;18.90;99.90
10270;DHT22;5180;50.832;5.390;2022-10-31T10:14:11;19.00;99.90
10270;DHT22;5180;50.832;5.390;2022-10-31T10:30:14;19.00;99.90
10270;DHT22;5180;50.832;5.390;2022-10-31T10:32:45;18.80;99.90
10270;DHT22;5180;50.832;5.390;2022-10-31T10:35:39;18.80;99.90
10270;DHT22;5180;50.832;5.390;2022-10-31T10:38:30;18.90;99.90
10270;DHT22;5180;50.832;5.390;2022-10-31T10:41:02;19.00;99.90
10270;DHT22;5180;50.832;5.390;2022-10-31T10:43:37;19.20;99.90
10270;DHT22;5180;50.832;5.390;2022-10-31T10:59:51;19.80;99.90
10270;DHT22;5180;50.832;5.390;2022-10-31T11:02:19;19.70;99.90
10270;DHT22;5180;50.832;5.390;2022-10-31T11:04:53;19.70;99.90
10270;DHT22;5180;50.832;5.390;2022-10-31T11:07:20;19.70;99.90
10270;DHT22;5180;50.832;5.390;2022-10-31T11:09:46;19.70;99.90
10270;DHT22;5180;50.832;5.390;2022-10-31T11:12:26;19.80;99.90
10270;DHT22;5180;50.832;5.390;2022-10-31T11:14:57;19.90;99.90
10270;DHT22;5180;50.832;5.390;2022-10-31T11:17:30;20.00;99.90
10270;DHT22;5180;50.832;5.390;2022-10-31T11:22:37;20.10;99.90
10270;DHT22;5180;50.832;5.390;2022-10-31T11:28:08;20.10;99.90
10270;DHT22;5180;50.832;5.390;2022-10-31T11:30:55;20.30;99.90
10270;DHT22;5180;50.832;5.390;2022-10-31T11:33:32;20.30;99.90
10270;DHT22;5180;50.832;5.390;2022-10-31T11:35:59;20.40;99.90
10270;DHT22;5180;50.832;5.390;2022-10-31T11:38:35;20.40;99.90
10270;DHT22;5180;50.832;5.390;2022-10-31T11:41:12;20.50;99.90
10270;DHT22;5180;50.832;5.390;2022-10-31T11:43:38;20.50;99.90
10270;DHT22;5180;50.832;5.390;2022-10-31T11:46:10;20.50;99.90
10270;DHT22;5180;50.832;5.390;2022-10-31T11:48:36;20.60;99.90
10270;DHT22;5180;50.832;5.390;2022-10-31T11:51:03;20.80;99.90
10270;DHT22;5180;50.832;5.390;2022-10-31T11:53:33;21.10;99.90
10270;DHT22;5180;50.832;5.390;2022-10-31T11:58:27;21.20;99.90
10270;DHT22;5180;50.832;5.390;2022-10-31T12:00:54;21.30;99.90
10270;DHT22;5180;50.832;5.390;2022-10-31T12:06:26;21.30;99.90
10270;DHT22;5180;50.832;5.390;2022-10-31T12:08:53;21.30;99.90
10270;DHT22;5180;50.832;5.390;2022-10-31T12:16:48;21.40;99.90
10270;DHT22;5180;50.832;5.390;2022-10-31T12:19:41;21.50;99.90
10270;DHT22;5180;50.832;5.390;2022-10-31T12:22:25;21.70;99.90
10270;DHT22;5180;50.832;5.390;2022-10-31T12:25:57;21.70;99.90
10270;DHT22;5180;50.832;5.390;2022-10-31T12:28:16;21.80;99.90
10270;DHT22;5180;50.832;5.390;2022-10-31T12:31:21;21.80;99.90
10270;DHT22;5180;50.832;5.390;2022-10-31T12:34:27;21.70;99.90
10270;DHT22;5180;50.832;5.390;2022-10-31T12:43:15;21.90;99.90
10270;DHT22;5180;50.832;5.390;2022-10-31T12:45:58;21.90;99.90
10270;DHT22;5180;50.832;5.390;2022-10-31T12:51:39;22.10;99.90
10270;DHT22;5180;50.832;5.390;2022-10-31T12:59:45;21.90;99.90
10270;DHT22;5180;50.832;5.390;2022-10-31T13:07:29;22.00;99.90
10270;DHT22;5180;50.832;5.390;2022-10-31T13:10:22;22.00;99.90
10270;DHT22;5180;50.832;5.390;2022-10-31T13:12:54;22.20;99.90
10270;DHT22;5180;50.832;5.390;2022-10-31T13:15:25;22.20;99.90
10270;DHT22;5180;50.832;5.390;2022-10-31T13:17:55;22.10;99.90
10270;DHT22;5180;50.832;5.390;2022-10-31T13:20:29;22.20;99.90
10270;DHT22;5180;50.832;5.390;2022-10-31T13:23:16;22.10;99.90
10270;DHT22;5180;50.832;5.390;2022-10-31T13:25:55;22.10;99.90
10270;DHT22;5180;50.832;5.390;2022-10-31T13:28:35;22.10;99.90
10270;DHT22;5180;50.832;5.390;2022-10-31T13:31:02;22.30;99.90
10270;DHT22;5180;50.832;5.390;2022-10-31T13:33:39;22.50;99.90
10270;DHT22;5180;50.832;5.390;2022-10-31T13:45:22;22.50;99.90
10270;DHT22;5180;50.832;5.390;2022-10-31T13:47:59;22.60;99.90
10270;DHT22;5180;50.832;5.390;2022-10-31T13:50:30;22.60;99.90
10270;DHT22;5180;50.832;5.390;2022-10-31T13:55:44;22.60;99.90
10270;DHT22;5180;50.832;5.390;2022-10-31T13:58:30;22.50;99.90
10270;DHT22;5180;50.832;5.390;2022-10-31T14:03:33;22.40;99.90
10270;DHT22;5180;50.832;5.390;2022-10-31T14:06:00;22.20;99.90
10270;DHT22;5180;50.832;5.390;2022-10-31T14:08:27;22.10;99.90
10270;DHT22;5180;50.832;5.390;2022-10-31T14:10:54;22.10;99.90
10270;DHT22;5180;50.832;5.390;2022-10-31T14:13:35;22.20;99.90
10270;DHT22;5180;50.832;5.390;2022-10-31T14:16:27;22.20;99.90
10270;DHT22;5180;50.832;5.390;2022-10-31T14:19:29;22.00;99.90
10270;DHT22;5180;50.832;5.390;2022-10-31T14:21:55;21.90;99.90
10270;DHT22;5180;50.832;5.390;2022-10-31T14:27:45;21.80;99.90
10270;DHT22;5180;50.832;5.390;2022-10-31T14:29:46;21.70;99.90
10270;DHT22;5180;50.832;5.390;2022-10-31T14:34:58;21.50;99.90
10270;DHT22;5180;50.832;5.390;2022-10-31T14:51:27;20.70;99.90
10270;DHT22;5180;50.832;5.390;2022-10-31T14:53:57;20.60;99.90
10270;DHT22;5180;50.832;5.390;2022-10-31T14:56:26;20.60;99.90
10270;DHT22;5180;50.832;5.390;2022-10-31T14:58:55;20.50;99.90
10270;DHT22;5180;50.832;5.390;2022-10-31T15:01:33;20.40;99.90
10270;DHT22;5180;50.832;5.390;2022-10-31T15:04:16;20.30;99.90
10270;DHT22;5180;50.832;5.390;2022-10-31T15:06:52;20.20;99.90
10270;DHT22;5180;50.832;5.390;2022-10-31T15:09:33;20.10;99.90
10270;DHT22;5180;50.832;5.390;2022-10-31T15:12:01;20.10;99.90
10270;DHT22;5180;50.832;5.390;2022-10-31T15:14:41;20.00;99.90
10270;DHT22;5180;50.832;5.390;2022-10-31T15:17:10;19.90;99.90
10270;DHT22;5180;50.832;5.390;2022-10-31T15:19:37;19.90;99.90
10270;DHT22;5180;50.832;5.390;2022-10-31T15:22:03;19.80;99.90
10270;DHT22;5180;50.832;5.390;2022-10-31T15:24:37;19.80;99.90
10270;DHT22;5180;50.832;5.390;2022-10-31T15:27:04;19.70;99.90
10270;DHT22;5180;50.832;5.390;2022-10-31T15:29:30;19.60;99.90
10270;DHT22;5180;50.832;5.390;2022-10-31T15:31:57;19.50;99.90
10270;DHT22;5180;50.832;5.390;2022-10-31T15:34:34;19.50;99.90
10270;DHT22;5180;50.832;5.390;2022-10-31T15:37:02;19.40;99.90
10270;DHT22;5180;50.832;5.390;2022-10-31T15:39:27;19.30;99.90
10270;DHT22;5180;50.832;5.390;2022-10-31T15:41:56;19.30;99.90
10270;DHT22;5180;50.832;5.390;2022-10-31T15:46:55;19.20;99.90
10270;DHT22;5180;50.832;5.390;2022-10-31T15:51:54;18.90;99.90
10270;DHT22;5180;50.832;5.390;2022-10-31T15:54:21;18.80;99.90
10270;DHT22;5180;50.832;5.390;2022-10-31T15:56:47;18.70;99.90
10270;DHT22;5180;50.832;5.390;2022-10-31T15:59:20;18.70;99.90
10270;DHT22;5180;50.832;5.390;2022-10-31T16:01:59;18.60;99.90
10270;DHT22;5180;50.832;5.390;2022-10-31T16:04:25;18.50;99.90
10270;DHT22;5180;50.832;5.390;2022-10-31T16:07:13;18.40;99.90
10270;DHT22;5180;50.832;5.390;2022-10-31T16:09:59;18.30;99.90
10270;DHT22;5180;50.832;5.390;2022-10-31T16:12:36;18.20;99.90
10270;DHT22;5180;50.832;5.390;2022-10-31T16:15:03;18.10;99.90
10270;DHT22;5180;50.832;5.390;2022-10-31T16:17:30;18.00;99.90
10270;DHT22;5180;50.832;5.390;2022-10-31T16:20:04;17.90;99.90
10270;DHT22;5180;50.832;5.390;2022-10-31T16:22:35;17.80;99.90
10270;DHT22;5180;50.832;5.390;2022-10-31T16:25:08;17.70;99.90
10270;DHT22;5180;50.832;5.390;2022-10-31T16:27:36;17.70;99.90
10270;DHT22;5180;50.832;5.390;2022-10-31T16:30:24;17.50;99.90
10270;DHT22;5180;50.832;5.390;2022-10-31T16:32:54;17.40;99.90
10270;DHT22;5180;50.832;5.390;2022-10-31T16:35:39;17.30;99.90
10270;DHT22;5180;50.832;5.390;2022-10-31T16:38:05;17.30;99.90
10270;DHT22;5180;50.832;5.390;2022-10-31T16:40:31;17.20;99.90
10270;DHT22;5180;50.832;5.390;2022-10-31T16:42:58;17.20;99.90
10270;DHT22;5180;50.832;5.390;2022-10-31T16:45:27;17.10;99.90
10270;DHT22;5180;50.832;5.390;2022-10-31T16:47:53;17.10;99.90
10270;DHT22;5180;50.832;5.390;2022-10-31T16:50:23;17.10;99.90
10270;DHT22;5180;50.832;5.390;2022-10-31T16:52:49;17.10;99.90
10270;DHT22;5180;50.832;5.390;2022-10-31T16:55:16;17.00;99.90
10270;DHT22;5180;50.832;5.390;2022-10-31T16:57:48;17.00;99.90
10270;DHT22;5180;50.832;5.390;2022-10-31T17:00:20;17.00;99.90
10270;DHT22;5180;50.832;5.390;2022-10-31T17:02:48;17.00;99.90
10270;DHT22;5180;50.832;5.390;2022-10-31T17:05:16;16.90;99.90
10270;DHT22;5180;50.832;5.390;2022-10-31T17:07:42;16.90;99.90
10270;DHT22;5180;50.832;5.390;2022-10-31T17:10:09;16.80;99.90
10270;DHT22;5180;50.832;5.390;2022-10-31T17:12:36;16.80;99.90
10270;DHT22;5180;50.832;5.390;2022-10-31T17:15:03;16.80;99.90
10270;DHT22;5180;50.832;5.390;2022-10-31T17:17:30;16.70;99.90
10270;DHT22;5180;50.832;5.390;2022-10-31T17:19:55;16.70;99.90
10270;DHT22;5180;50.832;5.390;2022-10-31T17:22:21;16.70;99.90
10270;DHT22;5180;50.832;5.390;2022-10-31T17:24:47;16.70;99.90
10270;DHT22;5180;50.832;5.390;2022-10-31T17:27:12;16.60;99.90
10270;DHT22;5180;50.832;5.390;2022-10-31T17:29:38;16.50;99.90
10270;DHT22;5180;50.832;5.390;2022-10-31T17:32:04;16.40;99.90
10270;DHT22;5180;50.832;5.390;2022-10-31T17:34:29;16.40;99.90
10270;DHT22;5180;50.832;5.390;2022-10-31T17:36:55;16.30;99.90
10270;DHT22;5180;50.832;5.390;2022-10-31T17:39:21;16.20;99.90
10270;DHT22;5180;50.832;5.390;2022-10-31T17:41:50;16.20;99.90
10270;DHT22;5180;50.832;5.390;2022-10-31T17:44:17;16.10;99.90
10270;DHT22;5180;50.832;5.390;2022-10-31T17:46:43;16.10;99.90
10270;DHT22;5180;50.832;5.390;2022-10-31T17:49:12;16.10;99.90
10270;DHT22;5180;50.832;5.390;2022-10-31T17:51:37;16.00;99.90
10270;DHT22;5180;50.832;5.390;2022-10-31T17:54:03;16.00;99.90
10270;DHT22;5180;50.832;5.390;2022-10-31T17:56:30;15.90;99.90
10270;DHT22;5180;50.832;5.390;2022-10-31T17:58:56;15.90;99.90
10270;DHT22;5180;50.832;5.390;2022-10-31T18:01:22;15.80;99.90
10270;DHT22;5180;50.832;5.390;2022-10-31T18:03:48;15.80;99.90
10270;DHT22;5180;50.832;5.390;2022-10-31T18:06:14;15.80;99.90
10270;DHT22;5180;50.832;5.390;2022-10-31T18:08:42;15.80;99.90
10270;DHT22;5180;50.832;5.390;2022-10-31T18:11:12;15.80;99.90
10270;DHT22;5180;50.832;5.390;2022-10-31T18:13:39;15.70;99.90
10270;DHT22;5180;50.832;5.390;2022-10-31T18:16:14;15.70;99.90
10270;DHT22;5180;50.832;5.390;2022-10-31T18:18:39;15.70;99.90
10270;DHT22;5180;50.832;5.390;2022-10-31T18:21:05;15.60;99.90
10270;DHT22;5180;50.832;5.390;2022-10-31T18:23:31;15.70;99.90
10270;DHT22;5180;50.832;5.390;2022-10-31T18:25:57;15.60;99.90
10270;DHT22;5180;50.832;5.390;2022-10-31T18:28:22;15.70;99.90
10270;DHT22;5180;50.832;5.390;2022-10-31T18:30:48;15.70;99.90
10270;DHT22;5180;50.832;5.390;2022-10-31T18:33:14;15.70;99.90
10270;DHT22;5180;50.832;5.390;2022-10-31T18:35:39;15.60;99.90
10270;DHT22;5180;50.832;5.390;2022-10-31T18:38:05;15.70;99.90